Alberta, Virginia
Current Conditions -  °F | °C
As of 8:35 AM on Wednesday 22 Oct 2014 (Local Time) from KLVL Reporting Station
Overcast Overcast  
Wind Chill: 47°   Ceiling: 4700
Heat Index: 50°   Visibility: 10mi
Dew Point: 48°   Wind: 7mph
Humidity: 94%   Direction: 290°WNW
Pressure: 29.93"   Gusts: NA
Location:  36.87°N, 77.89°W
Report Text: KLVL 221235Z AUTO 29006KT 10SM SCT021 SCT033 OVC047 10/09 A2993 RMK AO1 T00990089
Loading
Personal Weather Stations






























Interactive Weather Map New forecast layout! Learn more

10-Day Weather Forecast

Advertisements
Track Severe Weather on mobile